createdAt,value
2022-12-07T00:01:15.089Z,13.37
2022-12-07T00:03:43.068Z,13.03
2022-12-07T00:06:11.584Z,12.87
2022-12-07T00:08:38.995Z,12.43
2022-12-07T00:11:10.450Z,12.93
2022-12-07T00:13:37.775Z,12.37
2022-12-07T00:16:06.512Z,12.97
2022-12-07T00:18:33.885Z,13.00
2022-12-07T00:21:17.540Z,11.97
2022-12-07T00:23:45.452Z,12.07
2022-12-07T00:26:20.205Z,12.27
2022-12-07T00:28:51.025Z,11.90
2022-12-07T00:31:19.240Z,12.73
2022-12-07T00:33:46.766Z,11.67
2022-12-07T00:36:15.218Z,11.57
2022-12-07T00:38:42.625Z,13.17
2022-12-07T00:41:13.851Z,12.33
2022-12-07T00:43:41.971Z,12.50
2022-12-07T00:46:09.376Z,12.60
2022-12-07T00:48:37.057Z,11.50
2022-12-07T00:51:04.793Z,11.90
2022-12-07T00:53:35.481Z,12.47
2022-12-07T00:56:13.622Z,11.63
2022-12-07T00:58:40.778Z,12.00
2022-12-07T01:01:08.931Z,12.00
2022-12-07T01:03:36.383Z,12.07
2022-12-07T01:06:04.134Z,12.17
2022-12-07T01:08:31.229Z,11.90
2022-12-07T01:11:06.402Z,11.93
2022-12-07T01:13:34.230Z,12.13
2022-12-07T01:16:02.403Z,12.13
2022-12-07T01:18:30.249Z,12.60
2022-12-07T01:21:01.101Z,11.87
2022-12-07T01:23:28.360Z,12.37
2022-12-07T01:25:59.302Z,11.80
2022-12-07T01:28:26.666Z,11.47
2022-12-07T01:31:01.045Z,12.13
2022-12-07T01:33:29.718Z,12.13
2022-12-07T01:36:01.970Z,12.20
2022-12-07T01:38:29.505Z,10.87
2022-12-07T01:40:57.312Z,11.43
2022-12-07T01:43:25.313Z,11.43
2022-12-07T01:45:52.519Z,11.30
2022-12-07T01:48:22.232Z,12.40
2022-12-07T01:50:50.358Z,11.07
2022-12-07T01:53:18.559Z,11.30
2022-12-07T01:55:47.095Z,11.33
2022-12-07T01:58:14.677Z,11.77
2022-12-07T02:00:42.588Z,11.83
2022-12-07T02:03:18.277Z,11.60
2022-12-07T02:05:45.572Z,11.40
2022-12-07T02:11:42.423Z,11.83
2022-12-07T02:14:09.636Z,11.73
2022-12-07T02:16:45.728Z,11.23
2022-12-07T02:19:24.956Z,12.63
2022-12-07T02:21:54.372Z,12.13
2022-12-07T02:24:33.552Z,12.43
2022-12-07T02:27:09.654Z,12.40
2022-12-07T02:29:36.956Z,12.97
2022-12-07T02:32:22.817Z,11.97
2022-12-07T02:35:10.171Z,11.80
2022-12-07T02:37:48.987Z,14.13
2022-12-07T02:40:18.890Z,13.33
2022-12-07T02:42:49.275Z,13.20
2022-12-07T02:45:18.707Z,13.87
2022-12-07T02:47:47.482Z,12.67
2022-12-07T02:50:14.595Z,12.97
2022-12-07T02:52:41.723Z,13.07
2022-12-07T02:55:09.868Z,12.87
2022-12-07T02:58:00.234Z,13.13
2022-12-07T03:00:27.424Z,13.00
2022-12-07T03:03:08.060Z,13.67
2022-12-07T03:05:53.985Z,12.77
2022-12-07T03:08:21.140Z,12.47
2022-12-07T03:11:02.211Z,12.93
2022-12-07T03:13:29.274Z,13.50
2022-12-07T03:16:02.539Z,13.03
2022-12-07T03:18:32.088Z,13.83
2022-12-07T03:21:02.869Z,13.90
2022-12-07T03:23:31.696Z,14.83
2022-12-07T03:26:01.153Z,14.13
2022-12-07T03:28:29.680Z,12.83
2022-12-07T03:30:59.542Z,13.87
2022-12-07T03:33:30.889Z,13.40
2022-12-07T03:36:05.586Z,13.73
2022-12-07T03:38:58.755Z,14.07
2022-12-07T03:41:28.265Z,13.13
2022-12-07T03:43:56.368Z,13.17
2022-12-07T03:46:35.349Z,14.87
2022-12-07T03:49:08.595Z,13.17
2022-12-07T03:51:48.746Z,13.83
2022-12-07T03:54:19.316Z,13.67
2022-12-07T03:56:47.271Z,13.63
2022-12-07T03:59:15.800Z,13.67
2022-12-07T04:01:44.040Z,14.40
2022-12-07T04:04:11.199Z,13.67
2022-12-07T04:06:38.412Z,13.77
2022-12-07T04:09:05.539Z,13.27
2022-12-07T04:11:32.709Z,14.17
2022-12-07T04:14:18.498Z,14.07
2022-12-07T04:16:49.888Z,14.20
2022-12-07T04:19:17.523Z,13.53
2022-12-07T04:21:44.728Z,13.73
2022-12-07T04:24:13.212Z,13.93
2022-12-07T04:26:40.360Z,14.63
2022-12-07T04:29:08.009Z,13.37
2022-12-07T04:31:35.733Z,13.83
2022-12-07T04:34:02.976Z,13.10
2022-12-07T04:36:30.087Z,13.67
2022-12-07T04:38:57.629Z,13.23
2022-12-07T04:41:27.999Z,13.17
2022-12-07T04:43:58.746Z,13.17
2022-12-07T04:46:26.443Z,12.57
2022-12-07T04:48:54.533Z,12.60
2022-12-07T04:51:22.961Z,12.47
2022-12-07T04:53:50.139Z,13.53
2022-12-07T04:56:17.775Z,12.90
2022-12-07T04:58:45.564Z,13.30
2022-12-07T05:01:13.205Z,12.70
2022-12-07T05:03:40.668Z,12.37
2022-12-07T05:06:13.158Z,12.73
2022-12-07T05:08:40.940Z,11.57
2022-12-07T05:11:08.525Z,11.77
2022-12-07T05:13:35.739Z,11.73
2022-12-07T05:16:02.904Z,11.07
2022-12-07T05:18:30.044Z,10.87
2022-12-07T05:20:57.184Z,10.83
2022-12-07T05:23:24.313Z,10.77
2022-12-07T05:25:51.554Z,10.03
2022-12-07T05:28:18.650Z,10.70
2022-12-07T05:30:45.768Z,11.00
2022-12-07T05:33:12.917Z,10.97
2022-12-07T05:35:40.056Z,9.77
2022-12-07T05:38:07.165Z,10.33
2022-12-07T05:40:34.256Z,11.23
2022-12-07T05:43:04.955Z,10.80
2022-12-07T05:45:32.356Z,10.43
2022-12-07T05:47:59.542Z,10.37
2022-12-07T05:50:26.788Z,10.63
2022-12-07T05:52:53.870Z,11.30
2022-12-07T05:55:21.016Z,12.00
2022-12-07T05:58:06.650Z,12.60
2022-12-07T06:00:33.961Z,11.17
2022-12-07T06:03:01.268Z,11.50
2022-12-07T06:05:28.470Z,11.60
2022-12-07T06:07:55.597Z,11.70
2022-12-07T06:10:22.735Z,12.10
2022-12-07T06:12:49.797Z,13.07
2022-12-07T06:15:16.902Z,12.97
2022-12-07T06:17:44.002Z,12.67
2022-12-07T06:20:11.298Z,13.03
2022-12-07T06:22:38.372Z,12.77
2022-12-07T06:25:08.539Z,13.07
2022-12-07T06:27:36.421Z,13.83
2022-12-07T06:30:07.383Z,13.17
2022-12-07T06:32:34.925Z,13.00
2022-12-07T06:35:02.091Z,13.07
2022-12-07T06:37:29.307Z,12.87
2022-12-07T06:39:56.630Z,12.80
2022-12-07T06:42:23.939Z,13.30
2022-12-07T06:44:51.077Z,14.60
2022-12-07T06:47:40.176Z,12.00
2022-12-07T06:50:06.972Z,11.63
2022-12-07T06:52:34.115Z,11.07
2022-12-07T06:55:01.279Z,11.37
2022-12-07T06:57:28.410Z,12.03
2022-12-07T06:59:55.480Z,12.13
2022-12-07T07:02:22.673Z,11.80
2022-12-07T07:04:49.859Z,11.57
2022-12-07T07:07:16.939Z,11.60
2022-12-07T07:09:44.081Z,11.47
2022-12-07T07:12:11.194Z,12.07
2022-12-07T07:14:38.340Z,11.17
2022-12-07T07:17:05.489Z,10.37
2022-12-07T07:19:32.635Z,11.73
2022-12-07T07:21:59.730Z,10.70
2022-12-07T07:24:27.147Z,10.67
2022-12-07T07:26:54.264Z,10.93
2022-12-07T07:29:21.335Z,10.17
2022-12-07T07:31:48.431Z,10.57
2022-12-07T07:34:15.535Z,10.50
2022-12-07T07:36:42.600Z,10.70
2022-12-07T07:39:09.712Z,9.87
2022-12-07T07:41:36.845Z,9.53
2022-12-07T07:44:03.979Z,10.37
2022-12-07T07:46:31.548Z,10.33
2022-12-07T07:48:58.698Z,10.20
2022-12-07T07:51:25.945Z,9.40
2022-12-07T07:53:53.041Z,9.80
2022-12-07T07:56:20.174Z,9.67
2022-12-07T07:58:47.324Z,9.27
2022-12-07T08:01:14.695Z,9.47
2022-12-07T08:03:41.881Z,10.53
2022-12-07T08:06:08.988Z,9.73
2022-12-07T08:08:36.085Z,9.70
2022-12-07T08:11:06.329Z,9.33
2022-12-07T08:13:33.412Z,10.33
2022-12-07T08:16:04.731Z,10.57
2022-12-07T08:18:31.887Z,10.10
2022-12-07T08:21:02.428Z,9.67
2022-12-07T08:23:37.506Z,9.23
2022-12-07T08:26:08.065Z,10.53
2022-12-07T08:28:35.198Z,9.83
2022-12-07T08:31:02.699Z,9.57
2022-12-07T08:33:29.953Z,10.13
2022-12-07T08:36:02.721Z,10.03
2022-12-07T08:38:31.930Z,10.53
2022-12-07T08:41:00.129Z,10.30
2022-12-07T08:43:27.447Z,9.20
2022-12-07T08:46:05.839Z,10.63
2022-12-07T08:48:33.805Z,10.50
2022-12-07T08:51:02.872Z,9.83
2022-12-07T08:53:30.731Z,10.07
2022-12-07T08:55:59.028Z,10.00
2022-12-07T08:58:26.250Z,10.50
2022-12-07T09:00:53.419Z,10.00
2022-12-07T09:03:20.498Z,9.90
2022-12-07T09:05:47.773Z,9.87
2022-12-07T09:08:14.993Z,9.47
2022-12-07T09:10:42.166Z,9.60
2022-12-07T09:13:09.261Z,10.03
2022-12-07T09:15:36.405Z,9.53
2022-12-07T09:18:03.572Z,9.13
2022-12-07T09:20:30.663Z,9.43
2022-12-07T09:22:57.816Z,9.50
2022-12-07T09:25:25.013Z,10.33
2022-12-07T09:27:58.759Z,9.83
2022-12-07T09:30:26.583Z,9.00
2022-12-07T09:32:57.583Z,9.00
2022-12-07T09:35:25.313Z,9.13
2022-12-07T09:37:52.730Z,10.07
2022-12-07T09:40:21.359Z,10.27
2022-12-07T09:42:56.281Z,8.03
2022-12-07T09:45:35.639Z,8.03
2022-12-07T09:48:04.542Z,8.70
2022-12-07T09:50:31.947Z,7.60
2022-12-07T09:53:10.590Z,8.37
2022-12-07T09:55:38.134Z,7.83
2022-12-07T09:58:05.388Z,7.60
2022-12-07T10:00:32.550Z,6.77
2022-12-07T10:02:59.630Z,6.90
2022-12-07T10:05:31.844Z,7.30
2022-12-07T10:07:59.070Z,7.87
2022-12-07T10:10:27.735Z,7.03
2022-12-07T10:13:02.294Z,7.27
2022-12-07T10:15:48.331Z,7.77
2022-12-07T10:18:32.248Z,7.47
2022-12-07T10:21:18.014Z,7.10
2022-12-07T10:24:01.492Z,6.97
2022-12-07T10:26:30.839Z,6.87
2022-12-07T10:29:00.074Z,6.47
2022-12-07T10:31:27.286Z,6.83
2022-12-07T10:34:01.912Z,6.63
2022-12-07T10:36:29.032Z,7.43
2022-12-07T10:39:05.318Z,7.70
2022-12-07T10:41:32.470Z,6.90
2022-12-07T10:43:59.971Z,7.53
2022-12-07T10:46:39.735Z,7.53
2022-12-07T10:49:25.754Z,7.23
2022-12-07T10:51:58.144Z,7.80
2022-12-07T10:54:31.297Z,7.67
2022-12-07T10:57:08.183Z,8.20
2022-12-07T10:59:35.261Z,8.43
2022-12-07T11:02:02.393Z,8.77
2022-12-07T11:04:39.207Z,8.40
2022-12-07T11:07:18.453Z,7.47
2022-12-07T11:10:10.655Z,8.30
2022-12-07T11:13:01.336Z,7.60
2022-12-07T11:15:28.440Z,7.77
2022-12-07T11:18:04.744Z,7.60
2022-12-07T11:20:50.704Z,7.40
2022-12-07T11:23:27.875Z,7.60
2022-12-07T11:26:01.855Z,7.60
2022-12-07T11:28:47.767Z,8.07
2022-12-07T11:31:53.733Z,7.63
2022-12-07T11:34:20.838Z,7.57
2022-12-07T11:36:51.308Z,6.50
2022-12-07T11:39:24.527Z,7.10
2022-12-07T11:41:57.079Z,6.67
2022-12-07T11:44:38.429Z,7.53
2022-12-07T11:47:24.836Z,6.87
2022-12-07T11:50:10.847Z,6.80
2022-12-07T11:52:53.358Z,7.10
2022-12-07T11:55:26.525Z,6.83
2022-12-07T11:58:01.201Z,7.17
2022-12-07T12:00:29.299Z,7.47
2022-12-07T12:03:02.601Z,7.07
2022-12-07T12:05:30.256Z,7.00
2022-12-07T12:11:21.077Z,6.60
2022-12-07T12:16:53.173Z,6.27
2022-12-07T12:19:26.973Z,5.93
2022-12-07T12:21:59.546Z,6.23
2022-12-07T12:24:32.292Z,6.67
2022-12-07T12:27:03.657Z,6.10
2022-12-07T12:29:30.734Z,6.20
2022-12-07T12:32:07.059Z,6.60
2022-12-07T12:34:42.943Z,5.87
2022-12-07T12:37:52.161Z,6.30
2022-12-07T12:40:19.248Z,5.67
2022-12-07T12:42:56.519Z,5.87
2022-12-07T12:45:30.868Z,6.10
2022-12-07T12:47:58.079Z,6.30
2022-12-07T12:50:26.786Z,6.13
2022-12-07T12:53:05.653Z,6.37
2022-12-07T12:55:44.843Z,7.13
2022-12-07T12:58:20.963Z,6.47
2022-12-07T13:00:48.840Z,6.77
2022-12-07T13:03:24.209Z,6.47
2022-12-07T13:06:12.095Z,7.47
2022-12-07T13:08:42.385Z,7.30
2022-12-07T13:11:20.823Z,7.07
2022-12-07T13:13:47.945Z,6.37
2022-12-07T13:16:15.060Z,6.67
2022-12-07T13:18:42.835Z,5.90
2022-12-07T13:21:09.942Z,6.03
2022-12-07T13:23:46.068Z,6.50
2022-12-07T13:26:17.951Z,6.87
2022-12-07T13:28:46.952Z,6.77
2022-12-07T13:31:16.874Z,7.13
2022-12-07T13:33:48.130Z,7.10
2022-12-07T13:36:23.345Z,7.23
2022-12-07T13:38:54.826Z,6.53
2022-12-07T13:41:23.241Z,6.77
2022-12-07T13:43:52.294Z,6.90
2022-12-07T13:46:21.260Z,6.20
2022-12-07T13:48:49.582Z,6.10
2022-12-07T13:51:26.936Z,6.00
2022-12-07T13:53:55.833Z,5.97
2022-12-07T13:56:23.647Z,5.87
2022-12-07T13:58:50.858Z,5.57
2022-12-07T14:01:18.192Z,5.20
2022-12-07T14:03:45.341Z,4.70
2022-12-07T14:06:17.222Z,4.70
2022-12-07T14:08:44.688Z,4.97
2022-12-07T14:11:15.575Z,5.00
2022-12-07T14:13:58.217Z,4.73
2022-12-07T14:16:31.126Z,5.10
2022-12-07T14:18:59.440Z,5.47
2022-12-07T14:21:30.916Z,5.00
2022-12-07T14:24:24.356Z,5.60
2022-12-07T14:26:52.126Z,5.00
2022-12-07T14:29:29.429Z,4.87
2022-12-07T14:31:56.625Z,5.13
2022-12-07T14:34:24.001Z,4.87
2022-12-07T14:36:51.393Z,4.87
2022-12-07T14:39:18.540Z,5.43
2022-12-07T14:41:51.813Z,5.60
2022-12-07T14:44:23.878Z,4.57
2022-12-07T14:49:40.423Z,5.93
2022-12-07T14:54:59.570Z,6.47
2022-12-07T14:57:26.760Z,6.37
2022-12-07T14:59:53.872Z,7.30
2022-12-07T15:02:20.990Z,7.47
2022-12-07T15:04:48.172Z,7.30
2022-12-07T15:07:22.591Z,6.60
2022-12-07T15:09:50.159Z,6.70
2022-12-07T15:12:17.272Z,6.70
2022-12-07T15:14:44.382Z,6.50
2022-12-07T15:17:26.287Z,7.10
2022-12-07T15:19:57.117Z,6.53
2022-12-07T15:22:24.258Z,6.60
2022-12-07T15:24:51.332Z,6.57
2022-12-07T15:27:18.420Z,6.73
2022-12-07T15:29:45.529Z,7.40
2022-12-07T15:32:12.742Z,7.70
2022-12-07T15:34:40.668Z,7.37
2022-12-07T15:37:08.465Z,8.43
2022-12-07T15:39:35.641Z,8.77
2022-12-07T15:42:03.238Z,8.63
2022-12-07T15:44:49.047Z,8.50
2022-12-07T15:47:16.115Z,8.37
2022-12-07T15:49:43.231Z,8.20
2022-12-07T15:52:10.600Z,8.30
2022-12-07T15:54:37.718Z,7.67
2022-12-07T15:57:04.810Z,7.17
2022-12-07T15:59:31.925Z,7.70
2022-12-07T16:01:59.443Z,7.77
2022-12-07T16:04:28.223Z,7.13
2022-12-07T16:06:55.395Z,3.33
2022-12-07T16:09:22.514Z,2.50
2022-12-07T16:11:51.135Z,2.30
2022-12-07T16:14:18.241Z,1.70
2022-12-07T16:16:45.375Z,1.70
2022-12-07T16:19:12.652Z,1.40
2022-12-07T16:21:40.134Z,1.50
2022-12-07T16:24:07.809Z,1.70
2022-12-07T16:26:34.954Z,1.87
2022-12-07T16:29:02.340Z,2.40
2022-12-07T16:31:29.917Z,2.70
2022-12-07T16:33:57.983Z,2.90
2022-12-07T16:39:14.057Z,2.73
2022-12-07T16:41:41.258Z,2.60
2022-12-07T16:44:09.289Z,2.40
2022-12-07T16:46:37.169Z,2.40
2022-12-07T16:49:04.898Z,2.87
2022-12-07T16:51:32.475Z,3.20
2022-12-07T16:53:59.824Z,3.30
2022-12-07T16:56:27.830Z,3.40
2022-12-07T16:58:55.745Z,3.90
2022-12-07T17:01:24.412Z,4.03
2022-12-07T17:03:52.094Z,4.50
2022-12-07T17:06:23.498Z,4.57
2022-12-07T17:08:51.255Z,4.77
2022-12-07T17:11:22.432Z,5.47
2022-12-07T17:17:18.725Z,7.17
2022-12-07T17:19:46.349Z,7.67
2022-12-07T17:22:13.563Z,7.47
2022-12-07T17:24:40.794Z,8.17
2022-12-07T17:27:07.914Z,8.13
2022-12-07T17:29:35.068Z,8.57
2022-12-07T17:32:02.224Z,8.53
2022-12-07T17:34:29.372Z,7.93
2022-12-07T17:36:56.625Z,8.73
2022-12-07T17:39:23.886Z,9.10
2022-12-07T17:42:09.926Z,9.13
2022-12-07T17:44:37.188Z,9.53
2022-12-07T17:47:04.359Z,7.13
2022-12-07T17:49:31.536Z,8.77
2022-12-07T17:52:28.348Z,7.77
2022-12-07T17:54:55.484Z,9.00
2022-12-07T17:57:22.561Z,8.50
2022-12-07T17:59:49.835Z,8.40
2022-12-07T18:02:16.982Z,10.60
2022-12-07T18:04:44.201Z,10.83
2022-12-07T18:07:11.409Z,10.73
2022-12-07T18:09:38.516Z,11.50
2022-12-07T18:12:06.015Z,11.33
2022-12-07T18:14:33.298Z,11.87
2022-12-07T18:17:00.521Z,12.43
2022-12-07T18:19:27.709Z,11.57
2022-12-07T18:21:54.841Z,11.53
2022-12-07T18:24:21.945Z,12.07
2022-12-07T18:26:49.139Z,11.90
2022-12-07T18:29:17.807Z,12.77
2022-12-07T18:31:46.754Z,12.53
2022-12-07T18:34:14.775Z,12.13
2022-12-07T18:36:42.911Z,12.97
2022-12-07T18:39:10.440Z,12.33
2022-12-07T18:41:38.590Z,12.87
2022-12-07T18:44:06.165Z,12.97
2022-12-07T18:46:33.982Z,13.20
2022-12-07T18:49:01.274Z,24.77
2022-12-07T18:51:32.384Z,24.70
2022-12-07T18:54:01.138Z,18.37
2022-12-07T18:56:28.809Z,15.33
2022-12-07T18:59:16.183Z,16.00
2022-12-07T19:01:44.700Z,16.07
2022-12-07T19:04:11.927Z,15.83
2022-12-07T19:06:40.727Z,15.60
2022-12-07T19:09:08.104Z,14.23
2022-12-07T19:11:51.128Z,13.33
2022-12-07T19:14:20.408Z,13.43
2022-12-07T19:16:49.777Z,13.40
2022-12-07T19:19:18.057Z,12.50
2022-12-07T19:21:45.738Z,12.43
2022-12-07T19:24:14.379Z,11.23
2022-12-07T19:26:44.268Z,10.77
2022-12-07T19:29:11.438Z,11.30
2022-12-07T19:31:38.692Z,10.93
2022-12-07T19:34:09.860Z,11.37
2022-12-07T19:36:37.037Z,11.70
2022-12-07T19:39:04.264Z,13.10
2022-12-07T19:41:34.155Z,13.27
2022-12-07T19:44:03.519Z,13.90
2022-12-07T19:46:31.236Z,14.87
2022-12-07T19:48:58.870Z,14.57
2022-12-07T19:51:26.015Z,14.63
2022-12-07T19:53:53.315Z,14.57
2022-12-07T19:56:22.325Z,14.47
2022-12-07T19:58:49.755Z,15.30
2022-12-07T20:01:17.427Z,16.03
2022-12-07T20:03:45.084Z,15.93
2022-12-07T20:06:13.943Z,14.93
2022-12-07T20:08:41.596Z,15.27
2022-12-07T20:11:27.668Z,15.43
2022-12-07T20:13:55.220Z,15.60
2022-12-07T20:16:22.493Z,15.70
2022-12-07T20:18:55.928Z,15.67
2022-12-07T20:21:25.247Z,16.63
2022-12-07T20:23:52.556Z,15.00
2022-12-07T20:26:19.886Z,16.90
2022-12-07T20:28:47.135Z,16.27
2022-12-07T20:31:15.631Z,16.30
2022-12-07T20:33:46.082Z,16.83
2022-12-07T20:36:14.078Z,15.80
2022-12-07T20:38:42.107Z,16.73
2022-12-07T20:41:33.677Z,16.47
2022-12-07T20:44:01.712Z,16.63
2022-12-07T20:46:29.288Z,16.53
2022-12-07T20:48:59.152Z,17.17
2022-12-07T20:51:26.311Z,17.77
2022-12-07T20:53:53.427Z,17.20
2022-12-07T20:56:28.367Z,17.40
2022-12-07T20:58:59.927Z,19.13
2022-12-07T21:01:27.490Z,18.83
2022-12-07T21:03:55.584Z,20.10
2022-12-07T21:06:22.690Z,20.23
2022-12-07T21:08:51.041Z,20.90
2022-12-07T21:11:18.721Z,20.03
2022-12-07T21:13:46.323Z,20.97
2022-12-07T21:16:15.056Z,21.57
2022-12-07T21:18:43.480Z,22.83
2022-12-07T21:21:11.010Z,23.50
2022-12-07T21:23:38.652Z,25.77
2022-12-07T21:26:15.636Z,26.67
2022-12-07T21:28:42.754Z,29.10
2022-12-07T21:31:14.118Z,30.77
2022-12-07T21:33:44.017Z,30.93
2022-12-07T21:36:12.476Z,30.57
2022-12-07T21:38:39.680Z,30.97
2022-12-07T21:41:16.095Z,30.60
2022-12-07T21:43:43.499Z,30.30
2022-12-07T21:46:10.974Z,30.67
2022-12-07T21:48:38.138Z,29.70
2022-12-07T21:51:09.657Z,29.70
2022-12-07T21:53:37.438Z,29.77
2022-12-07T21:56:04.753Z,30.83
2022-12-07T21:58:32.334Z,30.50
2022-12-07T22:00:59.976Z,30.40
2022-12-07T22:03:27.179Z,27.10
2022-12-07T22:06:00.341Z,26.50
2022-12-07T22:08:27.503Z,26.87
2022-12-07T22:10:54.644Z,28.37
2022-12-07T22:13:21.805Z,28.20
2022-12-07T22:15:48.942Z,29.07
2022-12-07T22:18:16.130Z,29.00
2022-12-07T22:20:43.252Z,29.97
2022-12-07T22:23:10.416Z,28.73
2022-12-07T22:25:40.619Z,28.70
2022-12-07T22:28:07.734Z,27.53
2022-12-07T22:30:34.851Z,26.90
2022-12-07T22:33:01.963Z,26.87
2022-12-07T22:35:29.516Z,27.03
2022-12-07T22:37:56.658Z,28.20
2022-12-07T22:40:23.775Z,27.80
2022-12-07T22:42:50.860Z,28.00
2022-12-07T22:45:18.153Z,27.90
2022-12-07T22:47:45.245Z,28.17
2022-12-07T22:50:12.396Z,29.20
2022-12-07T22:52:39.504Z,30.43
2022-12-07T22:55:07.115Z,29.07
2022-12-07T22:57:34.303Z,28.10
2022-12-07T23:00:01.374Z,27.53
2022-12-07T23:02:28.511Z,29.83
2022-12-07T23:04:55.685Z,29.17
2022-12-07T23:07:22.782Z,29.90
2022-12-07T23:09:50.058Z,29.40
2022-12-07T23:12:36.000Z,30.13
2022-12-07T23:15:04.408Z,30.13
2022-12-07T23:17:31.752Z,30.73
2022-12-07T23:19:59.160Z,31.70
2022-12-07T23:22:26.293Z,29.90
2022-12-07T23:24:53.445Z,30.10
2022-12-07T23:27:20.520Z,30.17
2022-12-07T23:29:47.627Z,28.63
2022-12-07T23:32:14.744Z,29.13
2022-12-07T23:34:43.972Z,30.07
2022-12-07T23:37:11.131Z,31.27
2022-12-07T23:39:38.254Z,29.43
2022-12-07T23:42:05.526Z,30.13
2022-12-07T23:44:32.806Z,30.47
2022-12-07T23:46:59.968Z,30.70
2022-12-07T23:49:27.103Z,30.90
2022-12-07T23:51:54.207Z,31.30
2022-12-07T23:54:21.362Z,31.20
2022-12-07T23:56:48.455Z,30.27
2022-12-07T23:59:15.751Z,30.33
